Time;durP1;ratioP1;P1;durP2;ratioP2;P2;SDS_P1;SDS_P2;PMS_P1;PMS_P2;Temp;Humidity;BMP_temperature;BMP_pressure;BME280_temperature;BME280_humidity;BME280_pressure;Samples;Min_cycle;Max_cycle;Signal;HPM_P1;HPM_P2
2022/11/17 00:01:20;;;;;;;34.47;29.92;;;8.70;99.90;;;;;;5122954;27;20161;-80
2022/11/17 00:03:49;;;;;;;36.80;29.73;;;8.70;99.90;;;;;;5113440;27;20042;-80
2022/11/17 00:06:16;;;;;;;36.13;29.58;;;8.70;99.90;;;;;;5120948;27;20067;-72
2022/11/17 00:08:42;;;;;;;35.45;30.83;;;8.70;99.90;;;;;;5116642;27;20055;-73
2022/11/17 00:11:08;;;;;;;32.10;28.65;;;8.70;99.90;;;;;;5087551;27;20051;-71
2022/11/17 00:16:20;;;;;;;33.95;29.85;;;8.70;99.90;;;;;;5075684;27;20077;-72
2022/11/17 00:21:31;;;;;;;33.03;29.52;;;8.70;99.90;;;;;;5110868;27;20043;-71
2022/11/17 00:23:57;;;;;;;34.20;30.48;;;8.70;99.90;;;;;;5109733;27;20592;-72
2022/11/17 00:26:31;;;;;;;32.00;28.80;;;8.70;99.90;;;;;;5096921;27;20327;-81
2022/11/17 00:29:05;;;;;;;32.42;29.00;;;8.70;99.90;;;;;;5114393;27;20035;-80
2022/11/17 00:34:22;;;;;;;32.67;28.90;;;8.70;99.90;;;;;;5149542;27;20054;-80
2022/11/17 00:36:53;;;;;;;30.23;27.02;;;8.70;99.90;;;;;;5113748;27;20059;-81
2022/11/17 00:39:20;;;;;;;31.80;27.67;;;8.70;99.90;;;;;;5081349;27;21234;-80
2022/11/17 00:41:47;;;;;;;29.30;26.30;;;8.70;99.90;;;;;;5121869;27;20728;-79
2022/11/17 00:44:12;;;;;;;30.23;27.00;;;8.70;99.90;;;;;;5118213;27;20127;-82
2022/11/17 00:46:39;;;;;;;29.23;26.33;;;8.70;99.90;;;;;;5118362;27;20055;-80
2022/11/17 00:49:05;;;;;;;28.50;25.67;;;8.80;99.90;;;;;;5122893;27;20152;-80
2022/11/17 00:51:32;;;;;;;28.85;25.77;;;8.70;99.90;;;;;;5118843;27;20039;-82
2022/11/17 00:53:58;;;;;;;27.52;24.90;;;8.70;99.90;;;;;;5107929;27;20764;-80
2022/11/17 00:56:24;;;;;;;28.50;25.60;;;8.70;99.90;;;;;;5117563;27;20058;-79
2022/11/17 00:58:50;;;;;;;27.88;24.95;;;8.70;99.90;;;;;;5111548;27;20043;-80
2022/11/17 01:01:17;;;;;;;28.05;25.35;;;8.70;99.90;;;;;;5111337;27;20050;-80
2022/11/17 01:03:43;;;;;;;28.75;25.88;;;8.70;99.90;;;;;;5115294;27;20039;-80
2022/11/17 01:06:12;;;;;;;27.25;24.58;;;8.70;99.90;;;;;;5121479;27;20584;-81
2022/11/17 01:08:38;;;;;;;28.42;25.65;;;8.70;99.90;;;;;;5127065;27;20051;-80
2022/11/17 01:11:16;;;;;;;27.48;24.73;;;8.70;99.90;;;;;;5104508;27;21002;-80
2022/11/17 01:13:44;;;;;;;25.45;22.85;;;8.80;99.90;;;;;;5111590;27;20191;-81
2022/11/17 01:16:12;;;;;;;27.63;24.92;;;8.70;99.90;;;;;;5120707;27;20405;-79
2022/11/17 01:18:40;;;;;;;25.10;22.75;;;8.70;99.90;;;;;;5121289;27;20073;-80
2022/11/17 01:21:13;;;;;;;26.20;23.55;;;8.80;99.90;;;;;;5122480;27;20045;-80
2022/11/17 01:23:40;;;;;;;26.65;24.15;;;8.80;99.90;;;;;;5155118;27;20050;-81
2022/11/17 01:26:09;;;;;;;25.25;22.80;;;8.80;99.90;;;;;;5123317;27;20039;-79
2022/11/17 01:28:35;;;;;;;25.85;23.42;;;8.80;99.90;;;;;;5125482;27;20073;-80
2022/11/17 01:31:06;;;;;;;24.15;21.80;;;8.80;99.90;;;;;;5094305;27;20043;-80
2022/11/17 01:33:32;;;;;;;24.50;22.10;;;8.80;99.90;;;;;;5103775;27;20609;-80
2022/11/17 01:36:03;;;;;;;25.20;22.70;;;8.80;99.90;;;;;;5104626;27;20106;-80
2022/11/17 01:38:30;;;;;;;25.25;22.70;;;8.80;99.90;;;;;;5134324;27;20083;-80
2022/11/17 01:41:01;;;;;;;26.08;23.35;;;8.80;99.90;;;;;;5118688;27;20027;-80
2022/11/17 01:43:49;;;;;;;23.42;21.02;;;8.80;99.90;;;;;;5108362;27;20058;-81
2022/11/17 01:46:27;;;;;;;23.20;20.80;;;8.80;99.90;;;;;;5111371;27;20075;-83
2022/11/17 01:49:20;;;;;;;23.08;20.67;;;8.80;99.90;;;;;;5141000;27;20046;-81
2022/11/17 01:51:50;;;;;;;23.00;20.80;;;8.80;99.90;;;;;;5115545;27;20108;-77
2022/11/17 01:54:17;;;;;;;;;;;8.80;99.90;;;;;;5115831;27;20138;-82
2022/11/17 01:56:48;;;;;;;23.02;20.42;;;8.80;99.90;;;;;;5111883;27;19934;-79
2022/11/17 01:59:22;;;;;;;21.85;19.58;;;8.80;99.90;;;;;;5111788;27;20529;-81
2022/11/17 02:01:57;;;;;;;21.42;19.33;;;8.80;99.90;;;;;;5094260;27;20167;-79
2022/11/17 02:04:56;;;;;;;21.40;19.30;;;8.80;99.90;;;;;;5110866;27;20051;-79
2022/11/17 02:07:24;;;;;;;22.42;20.13;;;8.90;99.90;;;;;;5114605;27;20131;-72
2022/11/17 02:09:51;;;;;;;22.50;20.33;;;8.80;99.90;;;;;;5097327;27;20541;-81
2022/11/17 02:12:18;;;;;;;22.58;20.33;;;8.90;99.90;;;;;;5113963;27;20046;-80
2022/11/17 02:14:46;;;;;;;23.10;20.80;;;8.70;99.90;;;;;;5114186;27;20063;-80
2022/11/17 02:17:12;;;;;;;23.45;21.15;;;8.80;99.90;;;;;;5096727;27;20042;-81
2022/11/17 02:19:41;;;;;;;23.35;21.00;;;8.80;99.90;;;;;;5098045;27;20441;-80
2022/11/17 02:22:39;;;;;;;23.80;21.30;;;8.70;99.90;;;;;;5114295;27;20050;-80
2022/11/17 02:25:34;;;;;;;24.42;21.98;;;8.70;99.90;;;;;;5097237;27;20541;-80
2022/11/17 02:28:12;;;;;;;24.20;21.92;;;8.70;99.90;;;;;;5094899;27;20051;-81
2022/11/17 02:30:59;;;;;;;26.70;23.88;;;8.70;99.90;;;;;;5099281;27;20087;-80
2022/11/17 02:33:41;;;;;;;26.63;23.85;;;8.70;99.90;;;;;;5110351;27;20059;-81
2022/11/17 02:36:18;;;;;;;28.58;25.60;;;8.60;99.90;;;;;;5115305;27;20078;-81
2022/11/17 02:38:43;;;;;;;27.13;24.42;;;8.60;99.90;;;;;;5094365;27;20065;-83
2022/11/17 02:41:21;;;;;;;27.80;25.00;;;8.60;99.90;;;;;;5115293;27;20042;-81
2022/11/17 02:44:05;;;;;;;28.75;26.05;;;8.60;99.90;;;;;;5095001;27;20067;-81
2022/11/17 02:46:44;;;;;;;28.58;25.42;;;8.60;99.90;;;;;;5120275;27;20053;-81
2022/11/17 02:49:34;;;;;;;29.23;26.40;;;8.50;99.90;;;;;;5109913;27;20612;-83
2022/11/17 02:52:01;;;;;;;29.88;26.55;;;8.60;99.90;;;;;;5116259;27;20126;-80
2022/11/17 02:54:31;;;;;;;30.65;27.38;;;8.50;99.90;;;;;;5125348;27;20035;-83
2022/11/17 02:56:57;;;;;;;31.27;27.75;;;8.50;99.90;;;;;;5124404;27;20227;-82
2022/11/17 02:59:35;;;;;;;29.52;26.38;;;8.50;99.90;;;;;;5127568;27;20054;-80
2022/11/17 03:02:27;;;;;;;31.05;27.98;;;8.40;99.90;;;;;;5110193;27;20667;-80
2022/11/17 03:05:02;;;;;;;30.02;26.85;;;8.40;99.90;;;;;;5136311;27;20035;-82
2022/11/17 03:07:53;;;;;;;29.67;26.70;;;8.50;99.90;;;;;;5114436;27;20401;-82
2022/11/17 03:10:39;;;;;;;29.95;27.05;;;8.50;99.90;;;;;;5114403;27;20513;-81
2022/11/17 03:13:15;;;;;;;27.75;24.98;;;8.40;99.90;;;;;;5115107;27;20392;-80
2022/11/17 03:15:59;;;;;;;29.45;26.63;;;8.40;99.90;;;;;;5118606;27;20169;-80
2022/11/17 03:18:29;;;;;;;30.20;27.15;;;8.50;99.90;;;;;;5105695;27;20047;-81
2022/11/17 03:21:07;;;;;;;28.50;25.60;;;8.40;99.90;;;;;;5118578;27;20047;-80
2022/11/17 03:23:54;;;;;;;29.17;26.08;;;8.40;99.90;;;;;;5115875;27;20051;-80
2022/11/17 03:26:31;;;;;;;29.63;26.63;;;8.40;99.90;;;;;;5111885;27;20051;-80
2022/11/17 03:28:58;;;;;;;27.20;24.30;;;8.40;99.90;;;;;;5112134;27;20127;-80
2022/11/17 03:31:26;;;;;;;29.33;26.48;;;8.40;99.90;;;;;;5097123;27;20047;-83
2022/11/17 03:33:53;;;;;;;26.80;24.13;;;8.40;99.90;;;;;;5112551;27;20055;-81
2022/11/17 03:36:24;;;;;;;28.00;25.20;;;8.50;99.90;;;;;;5117234;27;20517;-78
2022/11/17 03:39:02;;;;;;;27.27;24.60;;;8.40;99.90;;;;;;5106331;27;20177;-80
2022/11/17 03:41:33;;;;;;;27.15;24.48;;;8.40;99.90;;;;;;5096008;27;20055;-75
2022/11/17 03:44:02;;;;;;;27.08;24.20;;;8.40;99.90;;;;;;5096744;27;20360;-74
2022/11/17 03:46:30;;;;;;;24.17;21.77;;;8.40;99.90;;;;;;5121256;27;20146;-73
2022/11/17 03:49:09;;;;;;;24.00;21.70;;;8.40;99.90;;;;;;5101525;27;20050;-79
2022/11/17 03:51:37;;;;;;;25.00;22.52;;;8.40;99.90;;;;;;5095824;27;20059;-73
2022/11/17 03:54:03;;;;;;;25.85;23.35;;;8.40;99.90;;;;;;5085453;27;20617;-73
2022/11/17 03:56:57;;;;;;;25.58;23.08;;;8.40;99.90;;;;;;5112128;27;20047;-73
2022/11/17 03:59:34;;;;;;;26.10;23.42;;;8.40;99.90;;;;;;5138346;27;20049;-73
2022/11/17 04:02:00;;;;;;;25.20;22.60;;;8.30;99.90;;;;;;5111701;27;20047;-74
2022/11/17 04:05:04;;;;;;;23.63;21.23;;;8.30;99.90;;;;;;5079118;27;20051;-79
2022/11/17 04:07:12;;;;;;;25.55;22.90;;;8.30;99.90;;;;;;5114092;27;20094;-79
2022/11/17 04:09:38;;;;;;;24.08;21.67;;;8.30;99.90;;;;;;5115429;27;20122;-78
2022/11/17 04:17:34;;;;;;;24.15;21.70;;;8.20;99.90;;;;;;5111526;27;20519;-73
2022/11/17 04:20:00;;;;;;;24.50;22.02;;;8.20;99.90;;;;;;5094575;27;20134;-73
2022/11/17 04:22:26;;;;;;;24.60;22.20;;;8.20;99.90;;;;;;5112074;27;20087;-72
2022/11/17 04:24:52;;;;;;;22.20;20.00;;;8.20;99.90;;;;;;5095005;27;20397;-80
2022/11/17 04:30:02;;;;;;;23.23;21.00;;;8.20;99.90;;;;;;5096357;27;20039;-79
2022/11/17 04:32:31;;;;;;;22.67;20.38;;;8.20;99.90;;;;;;5105260;27;20338;-81
2022/11/17 04:35:00;;;;;;;22.80;20.40;;;8.20;99.90;;;;;;5078353;27;20716;-80
2022/11/17 04:37:26;;;;;;;23.10;20.98;;;8.20;99.90;;;;;;5110616;27;20524;-74
2022/11/17 04:39:51;;;;;;;22.85;20.42;;;8.20;99.90;;;;;;5095079;27;20047;-74
2022/11/17 04:42:17;;;;;;;21.60;19.58;;;8.10;99.90;;;;;;5084938;27;20162;-75
2022/11/17 04:44:43;;;;;;;21.27;19.17;;;8.10;99.90;;;;;;5142852;27;20392;-75
2022/11/17 04:47:09;;;;;;;21.20;19.25;;;8.10;99.90;;;;;;5081618;27;20131;-75
2022/11/17 04:49:34;;;;;;;21.40;19.35;;;8.10;99.90;;;;;;5116379;27;20036;-76
2022/11/17 04:52:00;;;;;;;20.10;18.20;;;8.10;99.90;;;;;;5096284;27;20047;-74
2022/11/17 04:54:27;;;;;;;19.95;17.95;;;8.10;99.90;;;;;;5117461;27;20050;-75
2022/11/17 04:56:54;;;;;;;19.58;17.63;;;8.00;99.90;;;;;;5095852;27;20055;-81
2022/11/17 04:59:19;;;;;;;18.55;16.88;;;8.10;99.90;;;;;;5114269;27;20054;-81
2022/11/17 05:01:45;;;;;;;20.38;18.42;;;8.10;99.90;;;;;;5090858;27;20070;-80
2022/11/17 05:04:14;;;;;;;19.95;18.10;;;8.00;99.90;;;;;;5110106;27;20043;-81
2022/11/17 05:06:43;;;;;;;20.00;18.13;;;8.00;99.90;;;;;;5117181;27;20481;-82
2022/11/17 05:09:11;;;;;;;17.80;16.20;;;8.00;99.90;;;;;;5110301;27;20043;-79
2022/11/17 05:14:23;;;;;;;18.67;16.95;;;8.00;99.90;;;;;;5115407;27;20110;-82
2022/11/17 05:17:04;;;;;;;18.55;16.83;;;7.90;99.90;;;;;;5102920;27;20094;-81
2022/11/17 05:19:43;;;;;;;17.90;16.20;;;7.90;99.90;;;;;;5100059;27;20051;-80
2022/11/17 05:25:17;;;;;;;17.63;16.02;;;7.90;99.90;;;;;;5038611;28;20053;-81
2022/11/17 05:27:43;;;;;;;20.05;18.25;;;7.90;99.90;;;;;;5067800;28;20568;-79
2022/11/17 05:30:09;;;;;;;19.90;18.00;;;7.90;99.90;;;;;;5067385;27;20130;-80
2022/11/17 05:32:35;;;;;;;18.88;17.17;;;7.80;99.90;;;;;;5100617;27;20164;-81
2022/11/17 05:35:01;;;;;;;18.48;16.88;;;7.80;99.90;;;;;;5112401;27;20046;-80
2022/11/17 05:37:27;;;;;;;18.83;17.17;;;7.80;99.90;;;;;;5116860;27;20047;-83
2022/11/17 05:39:53;;;;;;;19.10;17.40;;;7.80;99.90;;;;;;5114338;27;20047;-79
2022/11/17 05:42:19;;;;;;;19.95;18.15;;;7.70;99.90;;;;;;5115478;27;20096;-81
2022/11/17 05:44:46;;;;;;;19.15;17.45;;;7.70;99.90;;;;;;5083877;27;20084;-80
2022/11/17 05:47:12;;;;;;;20.75;18.67;;;7.70;99.90;;;;;;5083578;27;20706;-83
2022/11/17 05:49:38;;;;;;;21.55;19.65;;;7.80;99.90;;;;;;5109547;27;20047;-81
2022/11/17 05:52:04;;;;;;;21.00;19.13;;;7.70;99.90;;;;;;5117995;27;20693;-81
2022/11/17 05:54:30;;;;;;;20.23;18.33;;;7.70;99.90;;;;;;5119792;27;20149;-83
2022/11/17 05:57:03;;;;;;;19.25;17.52;;;7.70;99.90;;;;;;5090797;27;20050;-81
2022/11/17 05:59:38;;;;;;;20.02;18.13;;;7.70;99.90;;;;;;5098108;27;20111;-81
2022/11/17 06:02:16;;;;;;;20.08;18.17;;;7.60;99.90;;;;;;5104539;27;20039;-80
2022/11/17 06:04:42;;;;;;;18.67;16.98;;;7.60;99.90;;;;;;5115727;27;20051;-79
2022/11/17 06:07:08;;;;;;;18.02;16.35;;;7.50;99.90;;;;;;5115731;27;20047;-82
2022/11/17 06:09:38;;;;;;;19.95;18.05;;;7.50;99.90;;;;;;5077764;27;20051;-81
2022/11/17 06:12:04;;;;;;;19.40;17.63;;;7.50;99.90;;;;;;5111857;27;20163;-79
2022/11/17 06:14:30;;;;;;;19.08;17.17;;;7.50;99.90;;;;;;5079897;27;20063;-81
2022/11/17 06:16:59;;;;;;;19.15;17.25;;;7.50;99.90;;;;;;5138551;27;20047;-80
2022/11/17 06:19:32;;;;;;;19.50;17.75;;;7.40;99.90;;;;;;5097888;27;20058;-80
2022/11/17 06:21:58;;;;;;;17.45;15.95;;;7.40;99.90;;;;;;5098518;27;20512;-82
2022/11/17 06:24:24;;;;;;;18.45;16.85;;;7.40;99.90;;;;;;5083759;27;20576;-81
2022/11/17 06:26:50;;;;;;;18.25;16.65;;;7.40;99.90;;;;;;5082279;27;20051;-80
2022/11/17 06:29:18;;;;;;;17.33;15.82;;;7.40;99.90;;;;;;5096633;27;20058;-80
2022/11/17 06:31:45;;;;;;;18.55;16.75;;;7.40;99.90;;;;;;5111463;27;20082;-80
2022/11/17 06:34:11;;;;;;;18.20;16.50;;;7.40;99.90;;;;;;5113873;27;20070;-83
2022/11/17 06:36:37;;;;;;;19.25;17.35;;;7.40;99.90;;;;;;5096413;27;20047;-80
2022/11/17 06:39:03;;;;;;;18.42;16.83;;;7.40;99.90;;;;;;5102199;27;20053;-82
2022/11/17 06:41:29;;;;;;;18.77;16.98;;;7.30;99.90;;;;;;5081891;27;20243;-80
2022/11/17 06:43:55;;;;;;;17.63;16.02;;;7.30;99.90;;;;;;5098679;27;20047;-83
2022/11/17 06:46:21;;;;;;;17.92;16.33;;;7.40;99.90;;;;;;5146086;27;20681;-82
2022/11/17 06:48:47;;;;;;;17.35;15.75;;;7.40;99.90;;;;;;5115375;27;20622;-82
2022/11/17 06:51:13;;;;;;;17.45;15.95;;;7.30;99.90;;;;;;5084072;27;20053;-80
2022/11/17 06:53:38;;;;;;;18.13;16.52;;;7.30;99.90;;;;;;5113763;27;20461;-81
2022/11/17 06:56:09;;;;;;;18.33;16.63;;;7.30;99.90;;;;;;5089235;27;20046;-74
2022/11/17 06:58:38;;;;;;;15.57;14.18;;;7.30;99.90;;;;;;5112944;27;20039;-80
2022/11/17 07:01:07;;;;;;;15.55;14.15;;;7.20;99.90;;;;;;5096082;27;20050;-84
2022/11/17 07:03:34;;;;;;;17.10;15.60;;;7.30;99.90;;;;;;5111167;27;20077;-81
2022/11/17 07:06:01;;;;;;;16.73;15.23;;;7.20;99.90;;;;;;5112434;27;20042;-82
2022/11/17 07:08:28;;;;;;;16.00;14.68;;;7.30;99.90;;;;;;5093720;27;20054;-81
2022/11/17 07:11:05;;;;;;;16.67;15.25;;;7.30;99.90;;;;;;5099031;27;20130;-81
2022/11/17 07:13:32;;;;;;;15.73;14.27;;;7.30;99.90;;;;;;5115284;27;20264;-81
2022/11/17 07:16:15;;;;;;;16.67;15.27;;;7.30;99.90;;;;;;5115618;27;20096;-81
2022/11/17 07:18:42;;;;;;;16.92;15.50;;;7.30;99.90;;;;;;5113931;27;20043;-79
2022/11/17 07:21:10;;;;;;;16.02;14.63;;;7.30;99.90;;;;;;5097973;27;20063;-80
2022/11/17 07:23:37;;;;;;;16.15;14.73;;;7.30;99.90;;;;;;5096728;27;20058;-80
2022/11/17 07:26:04;;;;;;;15.07;13.68;;;7.30;99.90;;;;;;5126617;27;20055;-80
2022/11/17 07:28:31;;;;;;;16.15;14.68;;;7.30;99.90;;;;;;5113624;27;20054;-80
2022/11/17 07:31:01;;;;;;;15.27;13.90;;;7.30;99.90;;;;;;5117240;27;20092;-80
2022/11/17 07:33:27;;;;;;;14.60;13.35;;;7.30;99.90;;;;;;5119452;27;20134;-81
2022/11/17 07:35:54;;;;;;;13.88;12.68;;;7.30;99.90;;;;;;5116231;27;20488;-82
2022/11/17 07:38:21;;;;;;;14.43;13.15;;;7.30;99.90;;;;;;5113813;27;20040;-81
2022/11/17 07:40:46;;;;;;;15.77;14.38;;;7.30;99.90;;;;;;5098047;27;20065;-81
2022/11/17 07:43:12;;;;;;;14.38;13.10;;;7.30;99.90;;;;;;5110556;27;20051;-81
2022/11/17 07:45:38;;;;;;;13.95;12.65;;;7.30;99.90;;;;;;5112894;27;20050;-80
2022/11/17 07:48:05;;;;;;;14.25;12.95;;;7.30;99.90;;;;;;5108752;27;20042;-83
2022/11/17 07:50:32;;;;;;;13.93;12.73;;;7.30;99.90;;;;;;5115455;27;20042;-81
2022/11/17 07:52:58;;;;;;;13.48;12.25;;;7.30;99.90;;;;;;5121361;27;20047;-79
2022/11/17 07:55:25;;;;;;;13.95;12.60;;;7.30;99.90;;;;;;5113200;27;20066;-78
2022/11/17 07:57:59;;;;;;;13.95;12.65;;;7.40;99.90;;;;;;5082457;27;20055;-82
2022/11/17 08:00:26;;;;;;;13.02;11.90;;;7.40;99.90;;;;;;5091379;27;20059;-80
2022/11/17 08:02:52;;;;;;;12.93;11.77;;;7.30;99.90;;;;;;5106411;27;20104;-79
2022/11/17 08:05:21;;;;;;;14.30;13.00;;;7.40;99.90;;;;;;5113859;27;20079;-83
2022/11/17 08:07:55;;;;;;;14.38;13.07;;;7.40;99.90;;;;;;5120512;27;20132;-82
2022/11/17 08:10:21;;;;;;;13.65;12.27;;;7.40;99.90;;;;;;5081789;27;21182;-81
2022/11/17 08:12:50;;;;;;;14.48;13.23;;;7.40;99.90;;;;;;5102635;27;20414;-81
2022/11/17 08:15:22;;;;;;;15.13;13.73;;;7.40;99.90;;;;;;5139441;27;20051;-81
2022/11/17 08:17:53;;;;;;;15.68;14.13;;;7.40;99.90;;;;;;5093375;27;20088;-80
2022/11/17 08:20:18;;;;;;;;;;;7.40;99.90;;;;;;5095159;27;20058;-81
2022/11/17 08:22:45;;;;;;;14.90;13.60;;;7.40;99.90;;;;;;5094733;27;19923;-82
2022/11/17 08:25:12;;;;;;;15.32;13.90;;;7.30;99.90;;;;;;5115715;27;20082;-78
2022/11/17 08:27:38;;;;;;;15.93;14.55;;;7.30;99.90;;;;;;5092476;27;20032;-81
2022/11/17 08:30:06;;;;;;;16.05;14.57;;;7.40;99.90;;;;;;5118179;27;20323;-82
2022/11/17 08:32:32;;;;;;;17.15;15.45;;;7.40;99.90;;;;;;5078715;27;20047;-81
2022/11/17 08:35:02;;;;;;;14.90;13.60;;;7.30;99.90;;;;;;5113608;27;20119;-82
2022/11/17 08:37:29;;;;;;;;;;;7.30;99.90;;;;;;5082640;27;20047;-81
2022/11/17 08:39:55;;;;;;;17.08;15.57;;;7.30;99.90;;;;;;5107143;27;19927;-81
2022/11/17 08:42:20;;;;;;;17.70;16.00;;;7.20;99.90;;;;;;5136071;27;20035;-81
2022/11/17 08:44:46;;;;;;;16.15;14.60;;;7.20;99.90;;;;;;5077294;28;20054;-82
2022/11/17 08:47:12;;;;;;;15.15;13.75;;;7.20;99.90;;;;;;5089639;28;20150;-78
2022/11/17 08:49:38;;;;;;;15.30;13.93;;;7.20;99.90;;;;;;5096474;28;20036;-81
2022/11/17 08:52:04;;;;;;;14.45;13.15;;;7.20;99.90;;;;;;5108123;27;20061;-82
2022/11/17 08:54:30;;;;;;;14.88;13.57;;;7.20;99.90;;;;;;5137766;27;20040;-81
2022/11/17 08:56:57;;;;;;;14.27;12.90;;;7.20;99.90;;;;;;5137568;27;20066;-81
2022/11/17 08:59:24;;;;;;;14.40;13.05;;;7.20;99.90;;;;;;5095894;28;20100;-82
2022/11/17 09:01:50;;;;;;;14.15;12.93;;;7.20;99.90;;;;;;5109748;27;20141;-82
2022/11/17 09:04:16;;;;;;;15.48;14.07;;;7.30;99.90;;;;;;5112510;27;20035;-81
2022/11/17 09:06:42;;;;;;;15.57;14.18;;;7.20;99.90;;;;;;5085183;27;20044;-83
2022/11/17 09:09:07;;;;;;;14.85;13.55;;;7.20;99.90;;;;;;5096374;27;20494;-81
2022/11/17 09:11:33;;;;;;;14.95;13.60;;;7.20;99.90;;;;;;5103078;27;20103;-79
2022/11/17 09:13:59;;;;;;;15.45;14.05;;;7.20;99.90;;;;;;5095154;27;20048;-81
2022/11/17 09:16:25;;;;;;;15.30;13.88;;;7.20;99.90;;;;;;5107971;27;20179;-81
2022/11/17 09:19:01;;;;;;;14.52;13.23;;;7.30;99.90;;;;;;5122043;27;20059;-82
2022/11/17 09:21:29;;;;;;;15.02;13.75;;;7.30;99.90;;;;;;5109717;27;20144;-82
2022/11/17 09:23:55;;;;;;;14.40;13.05;;;7.30;99.90;;;;;;5120126;27;20057;-83
2022/11/17 09:26:21;;;;;;;15.02;13.73;;;7.20;99.90;;;;;;5081055;27;20055;-82
2022/11/17 09:28:47;;;;;;;15.25;13.85;;;7.20;99.90;;;;;;5098943;27;20032;-82
2022/11/17 09:31:19;;;;;;;13.85;12.65;;;7.20;99.90;;;;;;5090207;27;20609;-82
2022/11/17 09:33:46;;;;;;;14.30;12.98;;;7.30;99.90;;;;;;5090828;27;20259;-80
2022/11/17 09:36:14;;;;;;;14.57;13.27;;;7.30;99.90;;;;;;5093056;27;20039;-82
2022/11/17 09:38:40;;;;;;;13.20;12.02;;;7.20;99.90;;;;;;5092041;27;20143;-82
2022/11/17 09:41:23;;;;;;;13.10;11.88;;;7.20;99.90;;;;;;5093969;27;20682;-82
2022/11/17 09:44:06;;;;;;;12.60;11.35;;;7.30;99.90;;;;;;5109860;27;20367;-81
2022/11/17 09:46:35;;;;;;;15.05;13.68;;;7.20;99.90;;;;;;5111247;27;20058;-81
2022/11/17 09:49:11;;;;;;;13.57;12.38;;;7.30;99.90;;;;;;5096180;27;20035;-79
2022/11/17 09:51:43;;;;;;;14.02;12.73;;;7.30;99.90;;;;;;5097115;27;20097;-78
2022/11/17 09:54:39;;;;;;;13.98;12.73;;;7.20;99.90;;;;;;5113305;27;20054;-80
2022/11/17 09:57:37;;;;;;;12.93;11.73;;;7.20;99.90;;;;;;5112949;27;20292;-82
2022/11/17 10:00:14;;;;;;;12.80;11.55;;;7.30;99.90;;;;;;5105148;27;20055;-81
2022/11/17 10:02:41;;;;;;;12.30;11.20;;;7.20;99.90;;;;;;5113587;27;20090;-79
2022/11/17 10:05:26;;;;;;;12.63;11.43;;;7.30;99.90;;;;;;5108787;27;20630;-81
2022/11/17 10:07:55;;;;;;;12.98;11.77;;;7.30;99.90;;;;;;5113738;27;20047;-82
2022/11/17 10:10:36;;;;;;;13.18;11.95;;;7.30;99.90;;;;;;5106575;27;20532;-74
2022/11/17 10:13:04;;;;;;;12.13;11.02;;;7.30;99.90;;;;;;5132206;27;20104;-75
2022/11/17 10:15:40;;;;;;;14.50;13.20;;;7.40;99.90;;;;;;5113660;27;20239;-76
2022/11/17 10:18:16;;;;;;;13.13;11.93;;;7.30;99.90;;;;;;5096625;27;20050;-76
2022/11/17 10:20:43;;;;;;;11.52;10.48;;;7.30;99.90;;;;;;5111194;27;20520;-75
2022/11/17 10:23:18;;;;;;;12.45;11.35;;;7.40;99.90;;;;;;5111966;27;20131;-76
2022/11/17 10:25:46;;;;;;;12.40;11.30;;;7.30;99.90;;;;;;5110925;27;20058;-74
2022/11/17 10:28:27;;;;;;;12.65;11.55;;;7.30;99.90;;;;;;5114433;27;20444;-74
2022/11/17 10:31:00;;;;;;;12.50;11.40;;;7.30;99.90;;;;;;5108720;27;20066;-74
2022/11/17 10:33:41;;;;;;;12.45;11.25;;;7.30;99.90;;;;;;5111428;27;20047;-75
2022/11/17 10:36:14;;;;;;;12.80;11.57;;;7.40;99.90;;;;;;5096056;27;20067;-82
2022/11/17 10:38:53;;;;;;;13.55;12.35;;;7.40;99.90;;;;;;5109358;27;20449;-74
2022/11/17 10:41:23;;;;;;;13.15;11.95;;;7.40;99.90;;;;;;5095568;27;20047;-74
2022/11/17 10:44:01;;;;;;;12.68;11.48;;;7.40;99.90;;;;;;5121040;27;20629;-79
2022/11/17 10:46:27;;;;;;;13.65;12.30;;;7.40;99.90;;;;;;5111881;27;20501;-74
2022/11/17 10:49:05;;;;;;;13.25;12.15;;;7.40;99.90;;;;;;5092803;27;20062;-80
2022/11/17 10:51:33;;;;;;;12.15;11.07;;;7.40;99.90;;;;;;5111731;27;20051;-74
2022/11/17 10:54:02;;;;;;;11.35;10.35;;;7.50;99.90;;;;;;5110652;27;20126;-75
2022/11/17 10:56:29;;;;;;;11.73;10.63;;;7.60;99.90;;;;;;5113333;27;20126;-76
2022/11/17 10:59:18;;;;;;;11.77;10.77;;;7.60;99.90;;;;;;5108427;27;20119;-77
2022/11/17 11:01:49;;;;;;;10.80;9.88;;;7.60;99.90;;;;;;5094334;27;20051;-74
2022/11/17 11:04:35;;;;;;;9.82;8.93;;;7.60;99.90;;;;;;5109721;27;20050;-74
2022/11/17 11:07:19;;;;;;;8.52;7.82;;;7.60;99.90;;;;;;5112613;27;20058;-73
2022/11/17 11:09:51;;;;;;;9.02;8.20;;;7.70;99.90;;;;;;5136269;27;20047;-80
2022/11/17 11:12:31;;;;;;;9.35;8.55;;;7.70;99.90;;;;;;5118789;27;20046;-81
2022/11/17 11:14:59;;;;;;;10.13;9.23;;;7.70;99.90;;;;;;5095082;27;20071;-82
2022/11/17 11:17:27;;;;;;;10.10;9.20;;;7.70;99.90;;;;;;5095034;27;20183;-81
2022/11/17 11:19:53;;;;;;;9.90;9.00;;;7.70;99.90;;;;;;5138442;27;20075;-83
2022/11/17 11:23:15;;;;;;;9.30;8.50;;;7.70;99.90;;;;;;5111801;27;20397;-81
2022/11/17 11:25:50;;;;;;;9.07;8.27;;;7.70;99.90;;;;;;5052135;28;20094;-80
2022/11/17 11:28:35;;;;;;;10.10;9.20;;;7.70;99.90;;;;;;5107454;27;20051;-81
2022/11/17 11:31:36;;;;;;;9.98;9.07;;;7.70;99.90;;;;;;5105474;27;20047;-81
2022/11/17 11:34:14;;;;;;;9.38;8.57;;;7.80;99.90;;;;;;5111354;27;20129;-82
2022/11/17 11:37:10;;;;;;;9.93;9.02;;;7.70;99.90;;;;;;5131625;27;20442;-81
2022/11/17 11:40:02;;;;;;;9.23;8.35;;;7.70;99.90;;;;;;5106081;27;20098;-81
2022/11/17 11:42:46;;;;;;;9.93;9.02;;;7.70;99.90;;;;;;5108999;27;20135;-80
2022/11/17 11:45:31;;;;;;;10.65;9.65;;;7.60;99.90;;;;;;5112543;27;20071;-80
2022/11/17 11:48:09;;;;;;;11.50;10.50;;;7.60;99.90;;;;;;5093579;27;20039;-80
2022/11/17 11:50:48;;;;;;;11.15;10.10;;;7.70;99.90;;;;;;5091553;27;20059;-80
2022/11/17 11:53:23;;;;;;;10.52;9.63;;;7.70;99.90;;;;;;5102918;27;20481;-82
2022/11/17 11:56:03;;;;;;;11.57;10.52;;;7.70;99.90;;;;;;5108997;27;20653;-82
2022/11/17 11:58:29;;;;;;;11.50;10.50;;;7.80;99.90;;;;;;5112072;27;20342;-81
2022/11/17 12:01:03;;;;;;;11.23;10.13;;;7.80;99.90;;;;;;5110029;27;20383;-80
2022/11/17 12:03:43;;;;;;;11.70;10.70;;;7.80;99.90;;;;;;5103399;27;20055;-81
2022/11/17 12:06:41;;;;;;;11.85;10.75;;;7.80;99.90;;;;;;5111099;27;20050;-81
2022/11/17 12:09:09;;;;;;;11.75;10.65;;;7.90;99.90;;;;;;5121846;27;20531;-80
2022/11/17 12:14:23;;;;;;;11.15;10.05;;;7.90;99.90;;;;;;5112866;27;20357;-81
2022/11/17 12:16:49;;;;;;;11.43;10.43;;;8.00;99.90;;;;;;5112169;27;20047;-81
2022/11/17 12:19:56;;;;;;;12.88;11.68;;;8.00;99.90;;;;;;5077934;27;20504;-81
2022/11/17 12:22:28;;;;;;;12.88;11.57;;;8.00;99.90;;;;;;5109725;27;20089;-80
2022/11/17 12:24:56;;;;;;;13.77;12.38;;;8.10;99.90;;;;;;5139671;27;20047;-81
2022/11/17 12:27:34;;;;;;;14.13;12.73;;;8.10;99.90;;;;;;5108475;27;20040;-81
2022/11/17 12:30:02;;;;;;;14.15;12.75;;;8.10;99.90;;;;;;5136310;27;20544;-80
2022/11/17 12:32:44;;;;;;;14.13;12.80;;;8.20;99.90;;;;;;5107526;27;20505;-80
2022/11/17 12:35:26;;;;;;;15.18;13.75;;;8.30;99.90;;;;;;5136033;27;20058;-80
2022/11/17 12:38:14;;;;;;;14.68;13.43;;;8.40;99.90;;;;;;5089499;28;20552;-81
2022/11/17 12:40:51;;;;;;;15.82;14.45;;;8.40;99.90;;;;;;5110521;27;20132;-81
2022/11/17 12:43:25;;;;;;;15.60;14.10;;;8.50;99.90;;;;;;5092209;28;20485;-79
2022/11/17 12:45:54;;;;;;;14.75;13.43;;;8.60;99.90;;;;;;5111120;27;20349;-80
2022/11/17 12:48:31;;;;;;;15.07;13.75;;;8.70;99.90;;;;;;5113367;27;20610;-81
2022/11/17 12:51:10;;;;;;;16.13;14.57;;;8.70;99.90;;;;;;5095462;28;20441;-80
2022/11/17 12:54:00;;;;;;;17.27;15.68;;;8.80;99.90;;;;;;5111781;27;20635;-81
2022/11/17 12:56:58;;;;;;;16.80;15.02;;;8.90;99.90;;;;;;5112371;27;20112;-81
2022/11/17 12:59:52;;;;;;;16.35;14.73;;;9.00;99.90;;;;;;5066164;28;20062;-81
2022/11/17 13:02:46;;;;;;;16.70;15.13;;;9.00;99.90;;;;;;5106719;27;20136;-81
2022/11/17 13:05:24;;;;;;;18.25;15.45;;;9.00;99.90;;;;;;5084497;27;20083;-81
2022/11/17 13:08:06;;;;;;;17.25;15.57;;;9.10;99.90;;;;;;5117503;27;20051;-80
2022/11/17 13:10:32;;;;;;;17.95;16.25;;;9.10;99.90;;;;;;5116265;27;20123;-80
2022/11/17 13:13:14;;;;;;;17.17;15.68;;;9.20;99.90;;;;;;5096297;27;20124;-81
2022/11/17 13:15:42;;;;;;;16.77;15.27;;;9.20;99.90;;;;;;5101453;27;20063;-81
2022/11/17 13:18:32;;;;;;;16.83;15.30;;;9.20;99.90;;;;;;5091922;27;20118;-81
2022/11/17 13:20:59;;;;;;;17.67;16.17;;;9.20;99.90;;;;;;5086730;27;20058;-81
2022/11/17 13:23:33;;;;;;;18.05;16.35;;;9.30;99.90;;;;;;5096684;27;20126;-80
2022/11/17 13:26:21;;;;;;;19.20;17.40;;;9.30;99.90;;;;;;5117894;27;20046;-80
2022/11/17 13:29:03;;;;;;;20.55;18.65;;;9.40;99.90;;;;;;5110991;27;20047;-80